sensor_id;sensor_type;location;lat;lon;timestamp;temperature;humidity
33739;DHT22;20063;51.730;11.110;2024-02-21T00:00:18;8.30;99.90
33739;DHT22;20063;51.730;11.110;2024-02-21T00:02:45;8.40;99.90
33739;DHT22;20063;51.730;11.110;2024-02-21T00:05:10;8.30;99.90
33739;DHT22;20063;51.730;11.110;2024-02-21T00:07:39;8.20;99.90
33739;DHT22;20063;51.730;11.110;2024-02-21T00:10:05;8.30;99.90
33739;DHT22;20063;51.730;11.110;2024-02-21T00:12:31;8.30;99.90
33739;DHT22;20063;51.730;11.110;2024-02-21T00:14:57;8.30;99.90
33739;DHT22;20063;51.730;11.110;2024-02-21T00:17:22;8.20;99.90
33739;DHT22;20063;51.730;11.110;2024-02-21T00:19:48;8.30;99.90
33739;DHT22;20063;51.730;11.110;2024-02-21T00:22:13;8.30;99.90
33739;DHT22;20063;51.730;11.110;2024-02-21T00:24:39;8.30;99.90
33739;DHT22;20063;51.730;11.110;2024-02-21T00:27:05;8.30;99.90
33739;DHT22;20063;51.730;11.110;2024-02-21T00:29:30;8.30;99.90
33739;DHT22;20063;51.730;11.110;2024-02-21T00:31:56;8.30;99.90
33739;DHT22;20063;51.730;11.110;2024-02-21T00:34:21;8.30;99.90
33739;DHT22;20063;51.730;11.110;2024-02-21T00:36:47;8.30;99.90
33739;DHT22;20063;51.730;11.110;2024-02-21T00:39:13;8.30;99.90
33739;DHT22;20063;51.730;11.110;2024-02-21T00:41:38;8.30;99.90
33739;DHT22;20063;51.730;11.110;2024-02-21T00:44:04;8.20;99.90
33739;DHT22;20063;51.730;11.110;2024-02-21T00:46:31;8.30;99.90
33739;DHT22;20063;51.730;11.110;2024-02-21T00:48:57;8.20;99.90
33739;DHT22;20063;51.730;11.110;2024-02-21T00:51:22;8.20;99.90
33739;DHT22;20063;51.730;11.110;2024-02-21T00:53:48;8.20;99.90
33739;DHT22;20063;51.730;11.110;2024-02-21T00:56:13;8.20;99.90
33739;DHT22;20063;51.730;11.110;2024-02-21T00:58:39;8.20;99.90
33739;DHT22;20063;51.730;11.110;2024-02-21T01:01:04;8.20;99.90
33739;DHT22;20063;51.730;11.110;2024-02-21T01:03:30;8.20;99.90
33739;DHT22;20063;51.730;11.110;2024-02-21T01:05:56;8.20;99.90
33739;DHT22;20063;51.730;11.110;2024-02-21T01:08:21;8.30;99.90
33739;DHT22;20063;51.730;11.110;2024-02-21T01:10:47;8.30;99.90
33739;DHT22;20063;51.730;11.110;2024-02-21T01:13:12;8.20;99.90
33739;DHT22;20063;51.730;11.110;2024-02-21T01:15:38;8.30;99.90
33739;DHT22;20063;51.730;11.110;2024-02-21T01:18:04;8.30;99.90
33739;DHT22;20063;51.730;11.110;2024-02-21T01:20:30;8.30;99.90
33739;DHT22;20063;51.730;11.110;2024-02-21T01:22:56;8.40;99.90
33739;DHT22;20063;51.730;11.110;2024-02-21T01:25:21;8.40;99.90
33739;DHT22;20063;51.730;11.110;2024-02-21T01:27:47;8.30;99.90
33739;DHT22;20063;51.730;11.110;2024-02-21T01:30:12;8.30;99.90
33739;DHT22;20063;51.730;11.110;2024-02-21T01:32:38;8.30;99.90
33739;DHT22;20063;51.730;11.110;2024-02-21T01:35:04;8.20;99.90
33739;DHT22;20063;51.730;11.110;2024-02-21T01:37:29;8.20;99.90
33739;DHT22;20063;51.730;11.110;2024-02-21T01:39:55;8.10;99.90
33739;DHT22;20063;51.730;11.110;2024-02-21T01:42:20;8.00;99.90
33739;DHT22;20063;51.730;11.110;2024-02-21T01:44:46;8.10;99.90
33739;DHT22;20063;51.730;11.110;2024-02-21T01:47:12;8.10;99.90
33739;DHT22;20063;51.730;11.110;2024-02-21T01:49:43;8.00;99.90
33739;DHT22;20063;51.730;11.110;2024-02-21T01:52:11;8.10;99.90
33739;DHT22;20063;51.730;11.110;2024-02-21T01:54:39;8.10;99.90
33739;DHT22;20063;51.730;11.110;2024-02-21T01:57:06;8.10;99.90
33739;DHT22;20063;51.730;11.110;2024-02-21T01:59:32;8.10;99.90
33739;DHT22;20063;51.730;11.110;2024-02-21T02:01:58;8.10;99.90
33739;DHT22;20063;51.730;11.110;2024-02-21T02:04:25;8.10;99.90
33739;DHT22;20063;51.730;11.110;2024-02-21T02:06:50;8.00;99.90
33739;DHT22;20063;51.730;11.110;2024-02-21T02:09:16;8.10;99.90
33739;DHT22;20063;51.730;11.110;2024-02-21T02:11:43;8.10;99.90
33739;DHT22;20063;51.730;11.110;2024-02-21T02:14:08;8.10;99.90
33739;DHT22;20063;51.730;11.110;2024-02-21T02:16:34;8.10;99.90
33739;DHT22;20063;51.730;11.110;2024-02-21T02:18:59;8.10;99.90
33739;DHT22;20063;51.730;11.110;2024-02-21T02:21:39;8.10;99.90
33739;DHT22;20063;51.730;11.110;2024-02-21T02:24:06;8.10;99.90
33739;DHT22;20063;51.730;11.110;2024-02-21T02:26:32;8.10;99.90
33739;DHT22;20063;51.730;11.110;2024-02-21T02:28:58;8.10;99.90
33739;DHT22;20063;51.730;11.110;2024-02-21T02:31:23;8.20;99.90
33739;DHT22;20063;51.730;11.110;2024-02-21T02:33:49;8.20;99.90
33739;DHT22;20063;51.730;11.110;2024-02-21T02:36:15;8.20;99.90
33739;DHT22;20063;51.730;11.110;2024-02-21T02:38:40;8.10;99.90
33739;DHT22;20063;51.730;11.110;2024-02-21T02:41:06;8.10;99.90
33739;DHT22;20063;51.730;11.110;2024-02-21T02:43:32;8.20;99.90
33739;DHT22;20063;51.730;11.110;2024-02-21T02:45:57;8.20;99.90
33739;DHT22;20063;51.730;11.110;2024-02-21T02:48:23;8.20;99.90
33739;DHT22;20063;51.730;11.110;2024-02-21T02:50:48;8.20;99.90
33739;DHT22;20063;51.730;11.110;2024-02-21T02:53:15;8.10;99.90
33739;DHT22;20063;51.730;11.110;2024-02-21T02:55:40;8.10;99.90
33739;DHT22;20063;51.730;11.110;2024-02-21T02:58:06;8.20;99.90
33739;DHT22;20063;51.730;11.110;2024-02-21T03:00:35;8.20;99.90
33739;DHT22;20063;51.730;11.110;2024-02-21T03:03:01;8.10;99.90
33739;DHT22;20063;51.730;11.110;2024-02-21T03:05:30;8.20;99.90
33739;DHT22;20063;51.730;11.110;2024-02-21T03:07:56;8.20;99.90
33739;DHT22;20063;51.730;11.110;2024-02-21T03:10:21;8.20;99.90
33739;DHT22;20063;51.730;11.110;2024-02-21T03:12:47;8.20;99.90
33739;DHT22;20063;51.730;11.110;2024-02-21T03:15:13;8.20;99.90
33739;DHT22;20063;51.730;11.110;2024-02-21T03:17:39;8.20;99.90
33739;DHT22;20063;51.730;11.110;2024-02-21T03:20:06;8.20;99.90
33739;DHT22;20063;51.730;11.110;2024-02-21T03:22:35;8.10;99.90
33739;DHT22;20063;51.730;11.110;2024-02-21T03:25:01;8.20;99.90
33739;DHT22;20063;51.730;11.110;2024-02-21T03:27:26;8.10;99.90
33739;DHT22;20063;51.730;11.110;2024-02-21T03:29:52;8.10;99.90
33739;DHT22;20063;51.730;11.110;2024-02-21T03:32:17;8.10;99.90
33739;DHT22;20063;51.730;11.110;2024-02-21T03:34:43;8.10;99.90
33739;DHT22;20063;51.730;11.110;2024-02-21T03:37:09;8.00;99.90
33739;DHT22;20063;51.730;11.110;2024-02-21T03:39:34;8.00;99.90
33739;DHT22;20063;51.730;11.110;2024-02-21T03:42:00;8.00;99.90
33739;DHT22;20063;51.730;11.110;2024-02-21T03:44:31;8.10;99.90
33739;DHT22;20063;51.730;11.110;2024-02-21T03:46:57;8.00;99.90
33739;DHT22;20063;51.730;11.110;2024-02-21T03:49:22;8.00;99.90
33739;DHT22;20063;51.730;11.110;2024-02-21T03:51:48;8.00;99.90
33739;DHT22;20063;51.730;11.110;2024-02-21T03:54:13;8.10;99.90
33739;DHT22;20063;51.730;11.110;2024-02-21T03:56:39;8.00;99.90
33739;DHT22;20063;51.730;11.110;2024-02-21T03:59:07;8.00;99.90
33739;DHT22;20063;51.730;11.110;2024-02-21T04:01:36;8.00;99.90
33739;DHT22;20063;51.730;11.110;2024-02-21T04:04:02;8.10;99.90
33739;DHT22;20063;51.730;11.110;2024-02-21T04:06:28;8.10;99.90
33739;DHT22;20063;51.730;11.110;2024-02-21T04:08:54;8.10;99.90
33739;DHT22;20063;51.730;11.110;2024-02-21T04:11:19;8.00;99.90
33739;DHT22;20063;51.730;11.110;2024-02-21T04:13:45;8.00;99.90
33739;DHT22;20063;51.730;11.110;2024-02-21T04:16:14;8.10;99.90
33739;DHT22;20063;51.730;11.110;2024-02-21T04:18:40;8.10;99.90
33739;DHT22;20063;51.730;11.110;2024-02-21T04:21:09;8.10;99.90
33739;DHT22;20063;51.730;11.110;2024-02-21T04:23:36;8.10;99.90
33739;DHT22;20063;51.730;11.110;2024-02-21T04:26:01;8.10;99.90
33739;DHT22;20063;51.730;11.110;2024-02-21T04:28:27;8.10;99.90
33739;DHT22;20063;51.730;11.110;2024-02-21T04:30:53;8.10;99.90
33739;DHT22;20063;51.730;11.110;2024-02-21T04:33:18;8.00;99.90
33739;DHT22;20063;51.730;11.110;2024-02-21T04:35:44;8.00;99.90
33739;DHT22;20063;51.730;11.110;2024-02-21T04:38:09;8.00;99.90
33739;DHT22;20063;51.730;11.110;2024-02-21T04:40:35;8.00;99.90
33739;DHT22;20063;51.730;11.110;2024-02-21T04:43:01;8.00;99.90
33739;DHT22;20063;51.730;11.110;2024-02-21T04:45:26;8.00;99.90
33739;DHT22;20063;51.730;11.110;2024-02-21T04:47:52;8.00;99.90
33739;DHT22;20063;51.730;11.110;2024-02-21T04:50:18;8.00;99.90
33739;DHT22;20063;51.730;11.110;2024-02-21T04:52:43;8.00;99.90
33739;DHT22;20063;51.730;11.110;2024-02-21T04:55:15;7.90;99.90
33739;DHT22;20063;51.730;11.110;2024-02-21T04:57:45;7.90;99.90
33739;DHT22;20063;51.730;11.110;2024-02-21T05:00:11;7.90;99.90
33739;DHT22;20063;51.730;11.110;2024-02-21T05:02:36;7.90;99.90
33739;DHT22;20063;51.730;11.110;2024-02-21T05:05:02;7.90;99.90
33739;DHT22;20063;51.730;11.110;2024-02-21T05:07:28;7.80;99.90
33739;DHT22;20063;51.730;11.110;2024-02-21T05:09:53;7.80;99.90
33739;DHT22;20063;51.730;11.110;2024-02-21T05:12:19;7.80;99.90
33739;DHT22;20063;51.730;11.110;2024-02-21T05:14:45;7.80;99.90
33739;DHT22;20063;51.730;11.110;2024-02-21T05:17:11;7.80;99.90
33739;DHT22;20063;51.730;11.110;2024-02-21T05:19:36;7.80;99.90
33739;DHT22;20063;51.730;11.110;2024-02-21T05:22:02;7.80;99.90
33739;DHT22;20063;51.730;11.110;2024-02-21T05:24:27;7.90;99.90
33739;DHT22;20063;51.730;11.110;2024-02-21T05:26:54;7.80;99.90
33739;DHT22;20063;51.730;11.110;2024-02-21T05:29:21;7.80;99.90
33739;DHT22;20063;51.730;11.110;2024-02-21T05:34:19;7.70;99.90
33739;DHT22;20063;51.730;11.110;2024-02-21T05:36:44;7.70;99.90
33739;DHT22;20063;51.730;11.110;2024-02-21T05:39:10;7.80;99.90
33739;DHT22;20063;51.730;11.110;2024-02-21T05:41:39;7.80;99.90
33739;DHT22;20063;51.730;11.110;2024-02-21T05:44:04;7.80;99.90
33739;DHT22;20063;51.730;11.110;2024-02-21T05:46:30;7.70;99.90
33739;DHT22;20063;51.730;11.110;2024-02-21T05:48:56;7.80;99.90
33739;DHT22;20063;51.730;11.110;2024-02-21T05:51:21;7.70;99.90
33739;DHT22;20063;51.730;11.110;2024-02-21T05:53:47;7.70;99.90
33739;DHT22;20063;51.730;11.110;2024-02-21T05:56:13;7.70;99.90
33739;DHT22;20063;51.730;11.110;2024-02-21T05:58:39;7.70;99.90
33739;DHT22;20063;51.730;11.110;2024-02-21T06:01:05;7.70;99.90
33739;DHT22;20063;51.730;11.110;2024-02-21T06:03:32;7.70;99.90
33739;DHT22;20063;51.730;11.110;2024-02-21T06:06:01;7.70;99.90
33739;DHT22;20063;51.730;11.110;2024-02-21T06:08:27;7.70;99.90
33739;DHT22;20063;51.730;11.110;2024-02-21T06:10:52;7.70;99.90
33739;DHT22;20063;51.730;11.110;2024-02-21T06:13:21;7.70;99.90
33739;DHT22;20063;51.730;11.110;2024-02-21T06:15:47;7.70;99.90
33739;DHT22;20063;51.730;11.110;2024-02-21T06:18:13;7.70;99.90
33739;DHT22;20063;51.730;11.110;2024-02-21T06:20:39;7.70;99.90
33739;DHT22;20063;51.730;11.110;2024-02-21T06:23:06;7.70;99.90
33739;DHT22;20063;51.730;11.110;2024-02-21T06:25:32;7.70;99.90
33739;DHT22;20063;51.730;11.110;2024-02-21T06:27:58;7.80;99.90
33739;DHT22;20063;51.730;11.110;2024-02-21T06:30:23;7.80;99.90
33739;DHT22;20063;51.730;11.110;2024-02-21T06:32:49;7.80;99.90
33739;DHT22;20063;51.730;11.110;2024-02-21T06:35:14;7.80;99.90
33739;DHT22;20063;51.730;11.110;2024-02-21T06:37:41;7.80;99.90
33739;DHT22;20063;51.730;11.110;2024-02-21T06:40:07;7.80;99.90
33739;DHT22;20063;51.730;11.110;2024-02-21T06:42:33;7.80;99.90
33739;DHT22;20063;51.730;11.110;2024-02-21T06:44:59;7.80;99.90
33739;DHT22;20063;51.730;11.110;2024-02-21T06:47:25;7.80;99.90
33739;DHT22;20063;51.730;11.110;2024-02-21T06:49:51;7.80;99.90
33739;DHT22;20063;51.730;11.110;2024-02-21T06:52:20;7.80;99.90
33739;DHT22;20063;51.730;11.110;2024-02-21T06:54:46;7.90;99.90
33739;DHT22;20063;51.730;11.110;2024-02-21T06:57:13;7.90;99.90
33739;DHT22;20063;51.730;11.110;2024-02-21T06:59:39;8.00;99.90
33739;DHT22;20063;51.730;11.110;2024-02-21T07:02:05;7.90;99.90
33739;DHT22;20063;51.730;11.110;2024-02-21T07:04:31;8.00;99.90
33739;DHT22;20063;51.730;11.110;2024-02-21T07:06:56;8.00;99.90
33739;DHT22;20063;51.730;11.110;2024-02-21T07:09:22;8.00;99.90
33739;DHT22;20063;51.730;11.110;2024-02-21T07:11:47;8.00;99.90
33739;DHT22;20063;51.730;11.110;2024-02-21T07:14:14;8.10;99.90
33739;DHT22;20063;51.730;11.110;2024-02-21T07:16:40;8.10;99.90
33739;DHT22;20063;51.730;11.110;2024-02-21T07:19:06;8.20;99.90
33739;DHT22;20063;51.730;11.110;2024-02-21T07:21:32;8.20;99.90
33739;DHT22;20063;51.730;11.110;2024-02-21T07:23:57;8.20;99.90
33739;DHT22;20063;51.730;11.110;2024-02-21T07:26:23;8.20;99.90
33739;DHT22;20063;51.730;11.110;2024-02-21T07:28:49;8.30;99.90
33739;DHT22;20063;51.730;11.110;2024-02-21T07:31:14;8.30;99.90
33739;DHT22;20063;51.730;11.110;2024-02-21T07:33:40;8.30;99.90
33739;DHT22;20063;51.730;11.110;2024-02-21T07:36:07;8.30;99.90
33739;DHT22;20063;51.730;11.110;2024-02-21T07:38:33;8.30;99.90
33739;DHT22;20063;51.730;11.110;2024-02-21T07:40:59;8.20;99.90
33739;DHT22;20063;51.730;11.110;2024-02-21T07:43:25;8.20;99.90
33739;DHT22;20063;51.730;11.110;2024-02-21T07:45:52;8.10;99.90
33739;DHT22;20063;51.730;11.110;2024-02-21T07:48:23;8.10;99.90
33739;DHT22;20063;51.730;11.110;2024-02-21T07:50:51;8.10;99.90
33739;DHT22;20063;51.730;11.110;2024-02-21T07:53:17;8.10;99.90
33739;DHT22;20063;51.730;11.110;2024-02-21T07:55:42;8.20;99.90
33739;DHT22;20063;51.730;11.110;2024-02-21T07:58:08;8.20;99.90
33739;DHT22;20063;51.730;11.110;2024-02-21T08:00:33;8.30;99.90
33739;DHT22;20063;51.730;11.110;2024-02-21T08:02:59;8.30;99.90
33739;DHT22;20063;51.730;11.110;2024-02-21T08:05:25;8.30;99.90
33739;DHT22;20063;51.730;11.110;2024-02-21T08:07:50;8.30;99.90
33739;DHT22;20063;51.730;11.110;2024-02-21T08:10:16;8.40;99.90
33739;DHT22;20063;51.730;11.110;2024-02-21T08:12:41;8.40;99.90
33739;DHT22;20063;51.730;11.110;2024-02-21T08:15:08;8.40;99.90
33739;DHT22;20063;51.730;11.110;2024-02-21T08:17:38;8.50;99.90
33739;DHT22;20063;51.730;11.110;2024-02-21T08:20:04;8.50;99.90
33739;DHT22;20063;51.730;11.110;2024-02-21T08:22:30;8.50;99.90
33739;DHT22;20063;51.730;11.110;2024-02-21T08:24:57;8.50;99.90
33739;DHT22;20063;51.730;11.110;2024-02-21T08:27:23;8.50;99.90
33739;DHT22;20063;51.730;11.110;2024-02-21T08:29:48;8.50;99.90
33739;DHT22;20063;51.730;11.110;2024-02-21T08:32:14;8.50;99.90
33739;DHT22;20063;51.730;11.110;2024-02-21T08:34:40;8.60;99.90
33739;DHT22;20063;51.730;11.110;2024-02-21T08:37:05;8.60;99.90
33739;DHT22;20063;51.730;11.110;2024-02-21T08:39:31;8.60;99.90
33739;DHT22;20063;51.730;11.110;2024-02-21T08:41:56;8.60;99.90
33739;DHT22;20063;51.730;11.110;2024-02-21T08:44:23;8.70;99.90
33739;DHT22;20063;51.730;11.110;2024-02-21T08:46:51;8.80;99.90
33739;DHT22;20063;51.730;11.110;2024-02-21T08:49:17;8.90;99.90
33739;DHT22;20063;51.730;11.110;2024-02-21T08:51:43;8.90;99.90
33739;DHT22;20063;51.730;11.110;2024-02-21T08:54:09;8.90;99.90
33739;DHT22;20063;51.730;11.110;2024-02-21T08:56:34;9.00;99.90
33739;DHT22;20063;51.730;11.110;2024-02-21T08:59:01;8.90;99.90
33739;DHT22;20063;51.730;11.110;2024-02-21T09:01:27;8.90;99.90
33739;DHT22;20063;51.730;11.110;2024-02-21T09:03:52;8.90;99.90
33739;DHT22;20063;51.730;11.110;2024-02-21T09:06:19;9.00;99.90
33739;DHT22;20063;51.730;11.110;2024-02-21T09:08:46;9.00;99.90
33739;DHT22;20063;51.730;11.110;2024-02-21T09:11:14;9.00;99.90
33739;DHT22;20063;51.730;11.110;2024-02-21T09:13:40;9.00;99.90
33739;DHT22;20063;51.730;11.110;2024-02-21T09:16:07;9.00;99.90
33739;DHT22;20063;51.730;11.110;2024-02-21T09:18:34;9.00;99.90
33739;DHT22;20063;51.730;11.110;2024-02-21T09:21:00;9.00;99.90
33739;DHT22;20063;51.730;11.110;2024-02-21T09:23:25;8.90;99.90
33739;DHT22;20063;51.730;11.110;2024-02-21T09:25:51;8.90;99.90
33739;DHT22;20063;51.730;11.110;2024-02-21T09:28:17;9.00;99.90
33739;DHT22;20063;51.730;11.110;2024-02-21T09:30:42;9.00;99.90
33739;DHT22;20063;51.730;11.110;2024-02-21T09:33:08;9.00;99.90
33739;DHT22;20063;51.730;11.110;2024-02-21T09:35:34;9.00;99.90
33739;DHT22;20063;51.730;11.110;2024-02-21T09:38:00;9.00;99.90
33739;DHT22;20063;51.730;11.110;2024-02-21T09:40:25;9.20;99.90
33739;DHT22;20063;51.730;11.110;2024-02-21T09:43:04;9.20;99.90
33739;DHT22;20063;51.730;11.110;2024-02-21T09:45:34;9.20;99.90
33739;DHT22;20063;51.730;11.110;2024-02-21T09:51:01;9.10;99.90
33739;DHT22;20063;51.730;11.110;2024-02-21T09:53:27;9.10;99.90
33739;DHT22;20063;51.730;11.110;2024-02-21T09:55:55;9.10;99.90
33739;DHT22;20063;51.730;11.110;2024-02-21T09:58:21;9.20;99.90
33739;DHT22;20063;51.730;11.110;2024-02-21T10:00:47;9.30;99.90
33739;DHT22;20063;51.730;11.110;2024-02-21T10:03:13;9.20;99.90
33739;DHT22;20063;51.730;11.110;2024-02-21T10:05:45;9.20;99.90
33739;DHT22;20063;51.730;11.110;2024-02-21T10:08:15;9.20;99.90
33739;DHT22;20063;51.730;11.110;2024-02-21T10:10:45;9.20;99.90
33739;DHT22;20063;51.730;11.110;2024-02-21T10:13:21;9.20;99.90
33739;DHT22;20063;51.730;11.110;2024-02-21T10:15:47;9.20;99.90
33739;DHT22;20063;51.730;11.110;2024-02-21T10:18:17;9.30;99.90
33739;DHT22;20063;51.730;11.110;2024-02-21T10:20:43;9.30;99.90
33739;DHT22;20063;51.730;11.110;2024-02-21T10:23:09;9.40;99.90
33739;DHT22;20063;51.730;11.110;2024-02-21T10:25:35;9.40;99.90
33739;DHT22;20063;51.730;11.110;2024-02-21T10:28:02;9.50;99.90
33739;DHT22;20063;51.730;11.110;2024-02-21T10:30:28;9.50;99.90
33739;DHT22;20063;51.730;11.110;2024-02-21T10:32:54;9.50;99.90
33739;DHT22;20063;51.730;11.110;2024-02-21T10:35:30;9.60;99.90
33739;DHT22;20063;51.730;11.110;2024-02-21T10:38:00;9.70;99.90
33739;DHT22;20063;51.730;11.110;2024-02-21T10:40:29;9.70;99.90
33739;DHT22;20063;51.730;11.110;2024-02-21T10:43:00;9.70;99.90
33739;DHT22;20063;51.730;11.110;2024-02-21T10:45:34;9.70;99.90
33739;DHT22;20063;51.730;11.110;2024-02-21T10:48:29;9.80;99.90
33739;DHT22;20063;51.730;11.110;2024-02-21T10:51:03;9.80;99.90
33739;DHT22;20063;51.730;11.110;2024-02-21T10:56:33;9.60;99.90
33739;DHT22;20063;51.730;11.110;2024-02-21T10:59:04;9.60;99.90
33739;DHT22;20063;51.730;11.110;2024-02-21T11:01:30;9.70;99.90
33739;DHT22;20063;51.730;11.110;2024-02-21T11:04:06;9.60;99.90
33739;DHT22;20063;51.730;11.110;2024-02-21T11:06:35;9.60;99.90
33739;DHT22;20063;51.730;11.110;2024-02-21T11:09:06;9.60;99.90
33739;DHT22;20063;51.730;11.110;2024-02-21T11:11:39;9.60;99.90
33739;DHT22;20063;51.730;11.110;2024-02-21T11:14:08;9.70;99.90
33739;DHT22;20063;51.730;11.110;2024-02-21T11:16:41;9.70;99.90
33739;DHT22;20063;51.730;11.110;2024-02-21T11:19:25;9.70;99.90
33739;DHT22;20063;51.730;11.110;2024-02-21T11:21:51;9.70;99.90
33739;DHT22;20063;51.730;11.110;2024-02-21T11:24:27;9.70;99.90
33739;DHT22;20063;51.730;11.110;2024-02-21T11:26:56;9.70;99.90
33739;DHT22;20063;51.730;11.110;2024-02-21T11:29:25;9.70;99.90
33739;DHT22;20063;51.730;11.110;2024-02-21T11:31:54;9.80;99.90
33739;DHT22;20063;51.730;11.110;2024-02-21T11:34:20;9.70;99.90
33739;DHT22;20063;51.730;11.110;2024-02-21T11:36:52;9.80;99.90
33739;DHT22;20063;51.730;11.110;2024-02-21T11:39:25;9.70;99.90
33739;DHT22;20063;51.730;11.110;2024-02-21T11:42:04;9.80;99.90
33739;DHT22;20063;51.730;11.110;2024-02-21T11:44:38;9.80;99.90
33739;DHT22;20063;51.730;11.110;2024-02-21T11:47:04;9.80;99.90
33739;DHT22;20063;51.730;11.110;2024-02-21T11:49:30;9.90;99.90
33739;DHT22;20063;51.730;11.110;2024-02-21T11:52:01;10.00;99.90
33739;DHT22;20063;51.730;11.110;2024-02-21T11:54:29;10.00;99.90
33739;DHT22;20063;51.730;11.110;2024-02-21T11:56:55;10.10;99.90
33739;DHT22;20063;51.730;11.110;2024-02-21T11:59:20;10.10;99.90
33739;DHT22;20063;51.730;11.110;2024-02-21T12:01:47;10.20;99.90
33739;DHT22;20063;51.730;11.110;2024-02-21T12:04:13;10.20;99.90
33739;DHT22;20063;51.730;11.110;2024-02-21T12:06:39;10.30;99.90
33739;DHT22;20063;51.730;11.110;2024-02-21T12:09:08;10.30;99.90
33739;DHT22;20063;51.730;11.110;2024-02-21T12:11:39;10.30;99.90
33739;DHT22;20063;51.730;11.110;2024-02-21T12:14:05;10.30;99.90
33739;DHT22;20063;51.730;11.110;2024-02-21T12:16:32;10.20;99.90
33739;DHT22;20063;51.730;11.110;2024-02-21T12:19:00;10.30;99.90
33739;DHT22;20063;51.730;11.110;2024-02-21T12:21:29;10.30;99.90
33739;DHT22;20063;51.730;11.110;2024-02-21T12:23:55;10.30;99.90
33739;DHT22;20063;51.730;11.110;2024-02-21T12:26:22;10.30;99.90
33739;DHT22;20063;51.730;11.110;2024-02-21T12:28:47;10.30;99.90
33739;DHT22;20063;51.730;11.110;2024-02-21T12:31:17;10.40;99.90
33739;DHT22;20063;51.730;11.110;2024-02-21T12:33:43;10.30;99.90
33739;DHT22;20063;51.730;11.110;2024-02-21T12:36:09;10.40;99.90
33739;DHT22;20063;51.730;11.110;2024-02-21T12:38:35;10.40;99.90
33739;DHT22;20063;51.730;11.110;2024-02-21T12:41:01;10.40;99.90
33739;DHT22;20063;51.730;11.110;2024-02-21T12:43:27;10.50;99.90
33739;DHT22;20063;51.730;11.110;2024-02-21T12:45:53;10.40;99.90
33739;DHT22;20063;51.730;11.110;2024-02-21T12:48:19;10.50;99.90
33739;DHT22;20063;51.730;11.110;2024-02-21T12:50:53;10.60;99.90
33739;DHT22;20063;51.730;11.110;2024-02-21T12:53:19;10.60;99.90
33739;DHT22;20063;51.730;11.110;2024-02-21T12:55:47;10.70;99.90
33739;DHT22;20063;51.730;11.110;2024-02-21T12:58:14;10.70;99.90
33739;DHT22;20063;51.730;11.110;2024-02-21T13:00:40;10.70;99.90
33739;DHT22;20063;51.730;11.110;2024-02-21T13:03:09;10.80;99.90
33739;DHT22;20063;51.730;11.110;2024-02-21T13:05:37;10.80;99.90
33739;DHT22;20063;51.730;11.110;2024-02-21T13:08:05;10.90;99.90
33739;DHT22;20063;51.730;11.110;2024-02-21T13:10:33;10.90;99.90
33739;DHT22;20063;51.730;11.110;2024-02-21T13:13:01;10.90;99.90
33739;DHT22;20063;51.730;11.110;2024-02-21T13:15:27;10.80;99.90
33739;DHT22;20063;51.730;11.110;2024-02-21T13:17:57;10.80;99.90
33739;DHT22;20063;51.730;11.110;2024-02-21T13:20:25;10.80;99.90
33739;DHT22;20063;51.730;11.110;2024-02-21T13:22:55;10.70;99.90
33739;DHT22;20063;51.730;11.110;2024-02-21T13:25:20;10.70;99.90
33739;DHT22;20063;51.730;11.110;2024-02-21T13:27:47;10.70;99.90
33739;DHT22;20063;51.730;11.110;2024-02-21T13:30:14;10.70;99.90
33739;DHT22;20063;51.730;11.110;2024-02-21T13:32:41;10.70;99.90
33739;DHT22;20063;51.730;11.110;2024-02-21T13:35:08;10.70;99.90
33739;DHT22;20063;51.730;11.110;2024-02-21T13:37:34;10.70;99.90
33739;DHT22;20063;51.730;11.110;2024-02-21T13:40:00;10.60;99.90
33739;DHT22;20063;51.730;11.110;2024-02-21T13:42:25;10.60;99.90
33739;DHT22;20063;51.730;11.110;2024-02-21T13:44:53;10.50;99.90
33739;DHT22;20063;51.730;11.110;2024-02-21T13:47:18;10.50;99.90
33739;DHT22;20063;51.730;11.110;2024-02-21T13:49:44;10.60;99.90
33739;DHT22;20063;51.730;11.110;2024-02-21T13:52:10;10.70;99.90
33739;DHT22;20063;51.730;11.110;2024-02-21T13:54:35;10.60;99.90
33739;DHT22;20063;51.730;11.110;2024-02-21T13:57:01;10.50;99.90
33739;DHT22;20063;51.730;11.110;2024-02-21T13:59:28;10.50;99.90
33739;DHT22;20063;51.730;11.110;2024-02-21T14:01:53;10.50;99.90
33739;DHT22;20063;51.730;11.110;2024-02-21T14:04:19;10.40;99.90
33739;DHT22;20063;51.730;11.110;2024-02-21T14:06:46;10.40;99.90
33739;DHT22;20063;51.730;11.110;2024-02-21T14:09:12;10.40;99.90
33739;DHT22;20063;51.730;11.110;2024-02-21T14:11:38;10.40;99.90
33739;DHT22;20063;51.730;11.110;2024-02-21T14:14:05;10.40;99.90
33739;DHT22;20063;51.730;11.110;2024-02-21T14:16:31;10.30;99.90
33739;DHT22;20063;51.730;11.110;2024-02-21T14:18:56;10.30;99.90
33739;DHT22;20063;51.730;11.110;2024-02-21T14:21:22;10.20;99.90
33739;DHT22;20063;51.730;11.110;2024-02-21T14:23:48;10.20;99.90
33739;DHT22;20063;51.730;11.110;2024-02-21T14:26:13;10.20;99.90
33739;DHT22;20063;51.730;11.110;2024-02-21T14:28:40;10.20;99.90
33739;DHT22;20063;51.730;11.110;2024-02-21T14:31:06;10.20;99.90
33739;DHT22;20063;51.730;11.110;2024-02-21T14:33:35;10.20;99.90
33739;DHT22;20063;51.730;11.110;2024-02-21T14:36:01;10.20;99.90
33739;DHT22;20063;51.730;11.110;2024-02-21T14:38:28;10.20;99.90
33739;DHT22;20063;51.730;11.110;2024-02-21T14:40:53;10.10;99.90
33739;DHT22;20063;51.730;11.110;2024-02-21T14:43:22;10.10;99.90
33739;DHT22;20063;51.730;11.110;2024-02-21T14:45:48;10.00;99.90
33739;DHT22;20063;51.730;11.110;2024-02-21T14:48:14;10.00;99.90
33739;DHT22;20063;51.730;11.110;2024-02-21T14:50:40;10.10;99.90
33739;DHT22;20063;51.730;11.110;2024-02-21T14:53:06;10.00;99.90
33739;DHT22;20063;51.730;11.110;2024-02-21T14:55:33;10.00;99.90
33739;DHT22;20063;51.730;11.110;2024-02-21T14:57:59;10.00;99.90
33739;DHT22;20063;51.730;11.110;2024-02-21T15:00:26;9.90;99.90
33739;DHT22;20063;51.730;11.110;2024-02-21T15:02:58;10.00;99.90
33739;DHT22;20063;51.730;11.110;2024-02-21T15:05:24;9.90;99.90
33739;DHT22;20063;51.730;11.110;2024-02-21T15:07:51;10.00;99.90
33739;DHT22;20063;51.730;11.110;2024-02-21T15:10:19;9.90;99.90
33739;DHT22;20063;51.730;11.110;2024-02-21T15:12:46;9.90;99.90
33739;DHT22;20063;51.730;11.110;2024-02-21T15:15:13;9.90;99.90
33739;DHT22;20063;51.730;11.110;2024-02-21T15:17:39;9.80;99.90
33739;DHT22;20063;51.730;11.110;2024-02-21T15:20:05;9.80;99.90
33739;DHT22;20063;51.730;11.110;2024-02-21T15:22:33;9.80;99.90
33739;DHT22;20063;51.730;11.110;2024-02-21T15:24:59;9.80;99.90
33739;DHT22;20063;51.730;11.110;2024-02-21T15:27:30;9.70;99.90
33739;DHT22;20063;51.730;11.110;2024-02-21T15:29:56;9.70;99.90
33739;DHT22;20063;51.730;11.110;2024-02-21T15:32:23;9.80;99.90